メインページ
METAR-TAF:

METAR-TAF

空港 :

ハルビン太平国際空港

ハルビン, 中華人民共和国

緯度: 45-45N, 経度: 126-46E, 海抜: 143m

現時点の気象観測

当レポートは12分前の03:00(UTC)に作成
南西の風 14kt
気温 26°C
湿度 18%
気圧 1016 hPa
視程10km以上
1,500メートル以下は雲なし、積乱雲なし

METAR: ZYHB 210300Z 22007MPS CAVOK 26/00 Q1016 NOSIG

時間: 11:12 (03:12 UTC)

予報

当レポートは8時間2分前の19:10(UTC)に作成
予報は21日の 00時(UTC)から 21日の 24時(UTC)まで有効
南西の風 14kt、最大29ktの突風を伴う
視程: 6000m
高度3300ftの雲は散在している

TAF: ZYHB 201910Z 2100/2124 22007G15MPS 6000 SCT033 TX28/2106Z TN15/2121Z

4,000以上の空港の気象観測と天気予報(METAR報とTAF報)

利用可能な観測所は地図上に黄色い丸と赤い丸で示す。

丸の上にカーソルを重ねると観測所名を参照できる。

次にクリックすると気象観測と天気予報を参照できる。

マップの切り替え:黒色「×」印の緑ボタンをクリックして拡大、「-」印の緑ボタンをクリックして縮小、緑色の三角印をクリックして隣りの地図に切り替え


METAR-TAF: